Terminal Aerodrome Forecast
Issued by NWS Twin Cities, MN

Home | Current Version | Previous Version | Graphics & Text | Print | Product List | Glossary On
Versions: 1 2 3 4 5 6 7 8 9 10 11 12 13 14 15 16 17 18 19 20 21 22 23 24 25 26
000
FTUS43 KMPX 120800 AAA
TAFMSP
TAF AMD
KMSP 120832Z 1209/1312 VRB02KT 6SM BR FEW008 BKN200
      TEMPO 1209/1212 5SM BR FEW008
     FM121300 33005KT P6SM BKN120
     FM121500 34007KT P6SM VCSH BKN040 OVC100
     FM122300 28008KT P6SM SCT050 BKN100=

USA.gov is the U.S. government's official web portal to all federal, state and local government web resources and services.